createdAt,value
2018-11-21T00:01:44.509Z,68.79
2018-11-21T00:04:51.503Z,68.23
2018-11-21T00:07:58.462Z,68.48
2018-11-21T00:11:05.431Z,68.94
2018-11-21T00:14:12.405Z,68.72
2018-11-21T00:17:19.365Z,68.67
2018-11-21T00:20:26.356Z,68.62
2018-11-21T00:23:33.410Z,68.69
2018-11-21T00:26:40.385Z,68.54
2018-11-21T00:29:47.379Z,68.56
2018-11-21T00:32:54.374Z,68.27
2018-11-21T00:36:01.398Z,68.62
2018-11-21T00:39:11.253Z,68.71
2018-11-21T00:42:18.359Z,68.28
2018-11-21T00:45:25.377Z,68.84
2018-11-21T00:48:32.331Z,68.60
2018-11-21T00:51:39.330Z,68.15
2018-11-21T00:54:46.414Z,68.36
2018-11-21T00:57:53.414Z,69.72
2018-11-21T01:01:00.426Z,69.69
2018-11-21T01:04:07.424Z,69.59
2018-11-21T01:07:14.395Z,69.53
2018-11-21T01:10:21.362Z,69.55
2018-11-21T01:13:28.369Z,69.39
2018-11-21T01:16:35.384Z,69.62
2018-11-21T01:19:42.370Z,69.97
2018-11-21T01:22:49.367Z,70.12
2018-11-21T01:25:56.340Z,69.97
2018-11-21T01:29:03.534Z,69.93
2018-11-21T01:32:10.564Z,70.00
2018-11-21T01:35:17.524Z,69.69
2018-11-21T01:38:24.578Z,69.56
2018-11-21T01:42:14.005Z,69.60
2018-11-21T01:45:19.366Z,69.58
2018-11-21T01:48:24.731Z,69.51
2018-11-21T01:51:30.201Z,69.97
2018-11-21T01:54:35.592Z,70.12
2018-11-21T01:57:40.942Z,69.57
2018-11-21T02:00:46.322Z,69.29
2018-11-21T02:03:51.783Z,69.60
2018-11-21T02:06:57.153Z,69.60
2018-11-21T02:10:02.530Z,69.01
2018-11-21T02:13:07.902Z,69.52
2018-11-21T02:16:13.269Z,69.19
2018-11-21T02:19:18.701Z,69.13
2018-11-21T02:22:24.056Z,68.82
2018-11-21T02:25:29.396Z,69.69
2018-11-21T02:28:34.791Z,68.93
2018-11-21T02:31:40.175Z,68.61
2018-11-21T02:34:45.559Z,69.19
2018-11-21T02:37:50.928Z,69.25
2018-11-21T02:40:56.289Z,69.52
2018-11-21T02:44:01.673Z,69.37
2018-11-21T02:47:07.177Z,70.12
2018-11-21T02:50:12.574Z,69.87
2018-11-21T02:53:17.910Z,70.06
2018-11-21T02:56:42.624Z,69.88
2018-11-21T02:59:48.635Z,70.16
2018-11-21T03:02:53.975Z,69.69
2018-11-21T03:05:59.390Z,69.17
2018-11-21T03:17:39.499Z,69.89
2018-11-21T03:20:44.896Z,69.54
2018-11-21T03:23:50.210Z,68.72
2018-11-21T03:26:55.605Z,69.52
2018-11-21T03:30:00.957Z,69.00
2018-11-21T03:33:06.503Z,69.42
2018-11-21T03:36:11.901Z,69.05
2018-11-21T03:39:18.387Z,68.83
2018-11-21T03:42:23.743Z,68.73
2018-11-21T03:45:29.102Z,68.43
2018-11-21T03:48:34.513Z,69.74
2018-11-21T03:51:40.060Z,70.22
2018-11-21T03:54:45.440Z,69.79
2018-11-21T03:57:50.790Z,69.89
2018-11-21T04:00:56.230Z,69.40
2018-11-21T04:04:01.674Z,69.31
2018-11-21T04:07:07.170Z,68.73
2018-11-21T04:10:14.288Z,69.17
2018-11-21T04:13:19.721Z,68.54
2018-11-21T04:16:25.062Z,68.62
2018-11-21T04:19:30.421Z,68.34
2018-11-21T04:22:35.949Z,68.44
2018-11-21T04:25:41.299Z,69.02
2018-11-21T04:28:47.128Z,68.89
2018-11-21T04:31:52.497Z,68.96
2018-11-21T04:34:57.879Z,69.19
2018-11-21T04:38:03.266Z,69.49
2018-11-21T04:41:08.601Z,69.05
2018-11-21T04:44:14.059Z,69.41
2018-11-21T04:47:19.393Z,69.05
2018-11-21T04:50:24.754Z,69.19
2018-11-21T04:53:30.179Z,69.43
2018-11-21T04:56:35.530Z,69.23
2018-11-21T04:59:40.885Z,69.84
2018-11-21T05:02:46.289Z,69.89
2018-11-21T05:05:51.650Z,69.86
2018-11-21T05:08:57.004Z,69.94
2018-11-21T05:12:02.623Z,69.38
2018-11-21T05:15:08.306Z,69.14
2018-11-21T05:18:13.701Z,68.65
2018-11-21T05:21:19.071Z,68.80
2018-11-21T05:24:24.604Z,68.85
2018-11-21T05:27:30.034Z,69.13
2018-11-21T05:30:35.374Z,69.33
2018-11-21T05:33:40.777Z,69.14
2018-11-21T05:36:46.179Z,68.86
2018-11-21T05:39:51.584Z,68.37
2018-11-21T05:42:56.962Z,71.28
2018-11-21T05:46:02.300Z,68.45
2018-11-21T05:49:07.889Z,68.83
2018-11-21T05:52:13.328Z,68.42
2018-11-21T05:55:18.683Z,68.63
2018-11-21T05:58:24.090Z,68.60
2018-11-21T06:01:29.504Z,68.70
2018-11-21T06:04:34.835Z,68.42
2018-11-21T06:07:40.251Z,68.15
2018-11-21T06:10:45.594Z,67.95
2018-11-21T06:13:50.993Z,67.93
2018-11-21T06:16:56.393Z,67.98
2018-11-21T06:20:01.931Z,68.22
2018-11-21T06:23:07.352Z,67.89
2018-11-21T06:26:12.743Z,68.12
2018-11-21T06:29:18.116Z,67.91
2018-11-21T06:32:23.490Z,68.15
2018-11-21T06:35:28.834Z,68.35
2018-11-21T06:38:34.374Z,68.86
2018-11-21T06:41:39.796Z,68.71
2018-11-21T06:44:45.176Z,69.06
2018-11-21T06:47:50.558Z,69.06
2018-11-21T06:50:55.971Z,68.79
2018-11-21T06:54:01.399Z,69.17
2018-11-21T06:57:06.942Z,68.81
2018-11-21T07:00:12.940Z,68.57
2018-11-21T07:03:18.326Z,68.97
2018-11-21T07:06:23.715Z,68.84
2018-11-21T07:09:29.150Z,68.57
2018-11-21T07:12:34.766Z,68.99
2018-11-21T07:29:16.161Z,68.75
2018-11-21T08:23:10.346Z,69.62
2018-11-21T08:26:33.463Z,68.98
2018-11-21T08:29:38.804Z,69.22
2018-11-21T08:32:44.475Z,68.00
2018-11-21T08:35:50.195Z,68.42
2018-11-21T08:38:55.625Z,68.91
2018-11-21T08:42:01.260Z,69.06
2018-11-21T08:45:08.188Z,69.57
2018-11-21T09:07:28.831Z,68.37
2018-11-21T09:13:38.743Z,68.51
2018-11-21T09:16:44.195Z,68.31
2018-11-21T09:20:07.126Z,68.45
2018-11-21T09:23:12.591Z,67.93
2018-11-21T09:26:18.093Z,68.32
2018-11-21T09:29:23.505Z,68.23
2018-11-21T09:32:29.192Z,67.68
2018-11-21T09:35:34.687Z,69.19
2018-11-21T09:38:40.069Z,68.79
2018-11-21T09:41:45.390Z,67.39
2018-11-21T09:44:50.743Z,67.50
2018-11-21T09:47:56.187Z,67.21
2018-11-21T09:51:01.570Z,67.10
2018-11-21T09:54:06.934Z,67.33
2018-11-21T09:57:12.284Z,67.66
2018-11-21T10:01:13.153Z,66.68
2018-11-21T10:04:18.507Z,66.58
2018-11-21T10:07:23.924Z,67.39
2018-11-21T10:10:29.312Z,67.25
2018-11-21T10:13:34.678Z,66.66
2018-11-21T10:16:40.052Z,67.24
2018-11-21T10:19:45.399Z,67.62
2018-11-21T10:22:50.771Z,67.18
2018-11-21T10:25:56.167Z,66.98
2018-11-21T10:29:01.535Z,66.56
2018-11-21T10:32:07.051Z,66.40
2018-11-21T10:35:12.520Z,66.50
2018-11-21T10:38:17.862Z,66.52
2018-11-21T10:41:23.220Z,65.78
2018-11-21T10:44:28.587Z,65.06
2018-11-21T10:47:33.952Z,65.73
2018-11-21T10:50:39.335Z,65.50
2018-11-21T10:53:44.813Z,65.46
2018-11-21T10:56:50.190Z,65.82
2018-11-21T10:59:55.532Z,63.98
2018-11-21T11:03:08.939Z,63.25
2018-11-21T11:07:08.614Z,61.34
2018-11-21T11:10:31.222Z,60.89
2018-11-21T11:13:54.140Z,60.44
2018-11-21T11:17:14.521Z,59.87
2018-11-21T11:20:37.587Z,60.31
2018-11-21T11:24:05.029Z,59.65
2018-11-21T11:27:21.557Z,60.17
2018-11-21T11:30:55.075Z,61.30
2018-11-21T11:34:22.285Z,61.17
2018-11-21T11:37:46.639Z,61.81
2018-11-21T11:41:23.068Z,63.18
2018-11-21T11:44:46.196Z,63.47
2018-11-21T11:48:09.357Z,62.69
2018-11-21T11:51:29.910Z,60.75
2018-11-21T11:54:52.694Z,60.38
2018-11-21T11:58:15.778Z,59.84
2018-11-21T12:22:09.702Z,60.59
2018-11-21T12:25:44.319Z,61.55
2018-11-21T12:29:17.515Z,62.30
2018-11-21T12:32:41.857Z,62.33
2018-11-21T12:36:09.172Z,62.78
2018-11-21T12:39:42.267Z,63.60
2018-11-21T12:43:05.225Z,63.79
2018-11-21T12:46:28.237Z,64.41
2018-11-21T12:49:51.220Z,64.62
2018-11-21T12:53:18.480Z,66.39
2018-11-21T12:56:52.064Z,65.74
2018-11-21T13:00:15.051Z,65.50
2018-11-21T13:03:42.236Z,65.58
2018-11-21T13:07:06.588Z,65.35
2018-11-21T13:10:33.900Z,64.78
2018-11-21T13:14:16.164Z,64.84
2018-11-21T13:17:46.518Z,64.75
2018-11-21T13:21:29.119Z,65.21
2018-11-21T13:25:02.196Z,65.57
2018-11-21T13:28:36.863Z,65.45
2018-11-21T13:31:59.884Z,66.06
2018-11-21T13:35:30.254Z,65.63
2018-11-21T13:38:53.314Z,65.25
2018-11-21T13:42:16.315Z,65.87
2018-11-21T13:45:40.779Z,66.63
2018-11-21T13:49:11.615Z,66.64
2018-11-21T13:52:29.853Z,66.39
2018-11-21T13:55:35.194Z,66.12
2018-11-21T13:58:40.533Z,66.24
2018-11-21T14:01:45.901Z,66.24
2018-11-21T14:04:51.287Z,66.08
2018-11-21T14:07:56.666Z,66.83
2018-11-21T14:11:02.038Z,67.07
2018-11-21T14:14:07.869Z,66.47
2018-11-21T14:17:13.250Z,67.61
2018-11-21T14:20:18.665Z,68.06
2018-11-21T14:23:24.040Z,67.87
2018-11-21T14:26:29.393Z,67.29
2018-11-21T14:29:34.747Z,67.16
2018-11-21T14:32:40.542Z,66.73
2018-11-21T14:35:45.960Z,67.28
2018-11-21T14:38:51.342Z,67.59
2018-11-21T14:41:56.686Z,67.51
2018-11-21T14:45:02.106Z,67.66
2018-11-21T14:48:07.559Z,67.53
2018-11-21T14:51:12.998Z,67.71
2018-11-21T14:54:18.377Z,68.33
2018-11-21T14:57:23.722Z,67.94
2018-11-21T15:00:29.074Z,68.23
2018-11-21T15:03:34.397Z,68.21
2018-11-21T15:06:39.750Z,67.33
2018-11-21T15:13:51.070Z,67.87
2018-11-21T15:16:56.454Z,67.87
2018-11-21T15:24:07.566Z,68.44
2018-11-21T15:27:12.922Z,67.86
2018-11-21T15:30:24.650Z,68.55
2018-11-21T15:33:29.922Z,68.53
2018-11-21T15:36:35.475Z,68.57
2018-11-21T15:39:40.808Z,68.62
2018-11-21T15:42:46.195Z,68.67
2018-11-21T15:45:51.521Z,68.58
2018-11-21T15:48:56.901Z,69.04
2018-11-21T15:52:02.264Z,69.17
2018-11-21T15:55:08.862Z,69.04
2018-11-21T15:58:14.507Z,68.66
2018-11-21T16:01:19.846Z,69.03
2018-11-21T16:04:25.206Z,69.24
2018-11-21T16:07:30.549Z,69.36
2018-11-21T16:10:45.910Z,69.64
2018-11-21T16:13:51.267Z,69.01
2018-11-21T16:16:56.635Z,69.67
2018-11-21T16:20:01.982Z,69.77
2018-11-21T16:23:07.349Z,69.25
2018-11-21T16:26:12.730Z,69.94
2018-11-21T16:29:18.030Z,69.68
2018-11-21T16:32:23.412Z,70.12
2018-11-21T17:09:50.656Z,70.73
2018-11-21T17:17:01.363Z,70.51
2018-11-21T17:20:16.777Z,70.25
2018-11-21T17:23:22.140Z,69.90
2018-11-21T17:26:27.534Z,69.61
2018-11-21T17:29:32.901Z,69.82
2018-11-21T17:32:38.305Z,69.81
2018-11-21T17:35:43.655Z,70.00
2018-11-21T17:38:49.100Z,70.30
2018-11-21T17:41:54.352Z,70.10
2018-11-21T17:44:59.712Z,70.20
2018-11-21T17:48:05.092Z,70.16
2018-11-21T17:51:10.472Z,70.58
2018-11-21T17:54:15.800Z,70.68
2018-11-21T17:57:24.466Z,70.61
2018-11-21T18:00:27.865Z,70.66
2018-11-21T18:03:33.240Z,70.65
2018-11-21T18:06:38.794Z,70.38
2018-11-21T18:09:44.195Z,70.67
2018-11-21T18:12:49.567Z,71.20
2018-11-21T18:15:54.923Z,71.61
2018-11-21T18:19:00.256Z,71.74
2018-11-21T18:22:05.675Z,71.60
2018-11-21T18:25:16.260Z,71.85
2018-11-21T18:28:21.621Z,71.61
2018-11-21T18:31:26.993Z,71.94
2018-11-21T18:34:32.330Z,72.69
2018-11-21T18:37:37.712Z,72.56
2018-11-21T18:40:43.086Z,72.21
2018-11-21T18:43:48.430Z,72.14
2018-11-21T18:46:53.842Z,72.21
2018-11-21T18:49:59.125Z,72.52
2018-11-21T18:53:05.695Z,72.60
2018-11-21T18:56:38.904Z,73.03
2018-11-21T18:59:57.648Z,73.03
2018-11-21T19:03:03.016Z,72.95
2018-11-21T19:06:08.392Z,73.17
2018-11-21T19:09:15.196Z,72.72
2018-11-21T19:12:20.675Z,72.64
2018-11-21T19:15:26.087Z,72.71
2018-11-21T19:18:31.467Z,73.32
2018-11-21T19:21:36.835Z,73.68
2018-11-21T19:24:42.177Z,73.95
2018-11-21T19:27:47.595Z,73.49
2018-11-21T19:30:52.959Z,73.03
2018-11-21T19:33:58.352Z,73.50
2018-11-21T19:37:03.723Z,73.41
2018-11-21T19:40:11.841Z,73.81
2018-11-21T19:43:17.256Z,73.68
2018-11-21T19:46:22.600Z,72.19
2018-11-21T19:49:33.281Z,72.66
2018-11-21T19:52:33.332Z,72.86
2018-11-21T19:55:38.889Z,72.94
2018-11-21T19:58:44.263Z,72.85
2018-11-21T20:01:49.625Z,72.84
2018-11-21T20:04:55.000Z,72.12
2018-11-21T20:08:00.363Z,72.60
2018-11-21T20:11:06.091Z,72.35
2018-11-21T20:14:11.471Z,73.17
2018-11-21T20:17:16.832Z,72.39
2018-11-21T20:20:22.757Z,72.42
2018-11-21T20:23:28.112Z,73.62
2018-11-21T20:26:33.635Z,73.41
2018-11-21T20:29:39.096Z,72.93
2018-11-21T20:32:44.563Z,72.53
2018-11-21T20:35:50.062Z,73.13
2018-11-21T20:38:55.536Z,72.60
2018-11-21T20:42:00.908Z,73.33
2018-11-21T20:45:10.176Z,73.44
2018-11-21T20:48:15.638Z,73.10
2018-11-21T20:51:21.091Z,73.41
2018-11-21T20:54:26.465Z,73.38
2018-11-21T20:57:31.989Z,72.77
2018-11-21T21:00:37.356Z,73.32
2018-11-21T21:03:42.764Z,73.44
2018-11-21T21:06:48.468Z,73.65
2018-11-21T21:10:49.729Z,74.39
2018-11-21T21:14:07.540Z,73.89
2018-11-21T21:17:13.150Z,75.00
2018-11-21T21:20:20.003Z,75.01
2018-11-21T21:23:27.986Z,76.04
2018-11-21T21:35:09.086Z,76.29
2018-11-21T21:41:54.311Z,76.02
2018-11-21T21:44:59.741Z,76.50
2018-11-21T21:48:05.449Z,75.82
2018-11-21T21:51:11.194Z,76.10
2018-11-21T21:54:16.763Z,75.63
2018-11-21T21:57:22.432Z,76.12
2018-11-21T22:00:28.623Z,75.50
2018-11-21T22:03:34.072Z,75.25
2018-11-21T22:06:39.531Z,75.24
2018-11-21T22:09:44.940Z,75.38
2018-11-21T22:12:50.552Z,75.91
2018-11-21T22:15:55.947Z,76.41
2018-11-21T22:19:01.391Z,74.95
2018-11-21T22:22:07.904Z,74.53
2018-11-21T22:33:38.448Z,74.92
2018-11-21T23:28:31.964Z,74.87
2018-11-21T23:31:37.553Z,74.93
